createdAt,value
2018-04-08T00:01:35.045Z,20.22
2018-04-08T00:04:02.648Z,20.22
2018-04-08T00:06:30.056Z,19.93
2018-04-08T00:08:57.468Z,20.01
2018-04-08T00:11:24.996Z,20.11
2018-04-08T00:13:52.417Z,19.97
2018-04-08T00:16:19.826Z,19.85
2018-04-08T00:18:47.322Z,19.85
2018-04-08T00:21:14.726Z,19.87
2018-04-08T00:23:42.151Z,19.84
2018-04-08T00:26:09.553Z,19.60
2018-04-08T00:28:36.929Z,19.69
2018-04-08T00:31:04.617Z,19.74
2018-04-08T00:33:32.007Z,19.66
2018-04-08T00:35:59.508Z,19.53
2018-04-08T00:38:26.876Z,19.65
2018-04-08T00:40:54.258Z,19.68
2018-04-08T00:43:21.657Z,19.43
2018-04-08T00:45:49.067Z,19.53
2018-04-08T00:48:16.461Z,19.20
2018-04-08T00:50:43.974Z,19.06
2018-04-08T00:53:11.431Z,18.82
2018-04-08T00:55:38.883Z,18.93
2018-04-08T00:58:06.831Z,18.69
2018-04-08T01:00:34.227Z,18.86
2018-04-08T01:03:01.731Z,18.98
2018-04-08T01:05:30.185Z,18.87
2018-04-08T01:07:57.583Z,18.60
2018-04-08T01:10:24.983Z,18.78
2018-04-08T01:12:52.394Z,18.91
2018-04-08T01:15:19.786Z,18.98
2018-04-08T01:17:47.184Z,18.99
2018-04-08T01:20:14.586Z,18.91
2018-04-08T01:22:42.097Z,18.92
2018-04-08T01:25:11.241Z,18.76
2018-04-08T01:27:38.639Z,18.69
2018-04-08T01:30:06.052Z,18.64
2018-04-08T01:32:33.496Z,17.98
2018-04-08T01:35:00.883Z,18.01
2018-04-08T01:37:28.308Z,17.85
2018-04-08T01:39:55.693Z,17.62
2018-04-08T01:42:23.097Z,17.55
2018-04-08T01:44:50.489Z,17.74
2018-04-08T01:47:17.872Z,17.60
2018-04-08T01:49:45.277Z,17.40
2018-04-08T01:52:12.653Z,17.54
2018-04-08T01:54:40.073Z,18.04
2018-04-08T01:57:07.461Z,18.44
2018-04-08T01:59:34.852Z,18.38
2018-04-08T02:02:02.248Z,18.64
2018-04-08T02:04:29.637Z,18.69
2018-04-08T02:06:57.004Z,18.60
2018-04-08T02:09:24.410Z,18.55
2018-04-08T02:11:51.824Z,18.49
2018-04-08T02:14:19.305Z,18.45
2018-04-08T02:16:46.680Z,18.11
2018-04-08T02:19:14.074Z,18.15
2018-04-08T02:21:41.570Z,18.09
2018-04-08T02:24:08.960Z,17.91
2018-04-08T02:26:36.402Z,17.90
2018-04-08T02:29:03.976Z,18.03
2018-04-08T02:31:31.382Z,17.80
2018-04-08T02:33:58.787Z,17.84
2018-04-08T02:36:26.186Z,17.93
2018-04-08T02:38:53.554Z,17.81
2018-04-08T02:41:20.966Z,17.70
2018-04-08T02:43:48.344Z,17.58
2018-04-08T02:46:15.776Z,17.55
2018-04-08T02:48:43.197Z,17.44
2018-04-08T02:51:10.604Z,17.48
2018-04-08T02:53:40.593Z,17.35
2018-04-08T02:56:09.306Z,17.29
2018-04-08T02:58:44.112Z,17.45
2018-04-08T03:01:24.528Z,17.36
2018-04-08T03:03:51.909Z,17.38
2018-04-08T03:06:19.406Z,17.35
2018-04-08T03:08:46.880Z,17.34
2018-04-08T03:11:14.420Z,17.36
2018-04-08T03:13:41.909Z,17.38
2018-04-08T03:16:09.277Z,17.55
2018-04-08T03:18:36.666Z,17.56
2018-04-08T03:21:04.037Z,17.25
2018-04-08T03:23:31.455Z,17.23
2018-04-08T03:25:58.882Z,17.28
2018-04-08T03:28:26.320Z,17.13
2018-04-08T03:30:53.729Z,17.13
2018-04-08T03:33:21.209Z,17.39
2018-04-08T03:35:48.660Z,17.26
2018-04-08T03:38:16.036Z,16.96
2018-04-08T03:40:43.429Z,16.99
2018-04-08T03:43:10.901Z,17.03
2018-04-08T03:45:38.286Z,16.94
2018-04-08T03:48:05.673Z,16.98
2018-04-08T03:50:33.138Z,16.85
2018-04-08T03:53:00.549Z,16.87
2018-04-08T03:55:27.952Z,16.84
2018-04-08T03:57:55.417Z,16.72
2018-04-08T04:00:22.772Z,16.91
2018-04-08T04:02:50.165Z,16.84
2018-04-08T04:05:17.549Z,17.03
2018-04-08T04:07:45.841Z,16.87
2018-04-08T04:10:13.256Z,16.93
2018-04-08T04:12:40.736Z,16.84
2018-04-08T04:15:08.159Z,17.02
2018-04-08T04:17:35.545Z,16.90
2018-04-08T04:20:14.813Z,16.91
2018-04-08T04:22:53.864Z,16.92
2018-04-08T04:25:33.049Z,16.76
2018-04-08T04:28:00.443Z,16.80
2018-04-08T04:30:27.821Z,16.80
2018-04-08T04:32:55.236Z,16.67
2018-04-08T04:35:22.577Z,16.60
2018-04-08T04:37:50.102Z,16.75
2018-04-08T04:40:17.480Z,16.84
2018-04-08T04:42:44.893Z,16.65
2018-04-08T04:45:12.336Z,16.50
2018-04-08T04:47:39.673Z,16.50
2018-04-08T04:50:07.403Z,16.58
2018-04-08T04:52:34.802Z,16.59
2018-04-08T04:55:02.189Z,16.40
2018-04-08T04:57:29.582Z,16.47
2018-04-08T04:59:56.972Z,16.66
2018-04-08T05:02:24.366Z,16.64
2018-04-08T05:04:51.854Z,16.49
2018-04-08T05:07:20.095Z,16.36
2018-04-08T05:09:47.478Z,16.66
2018-04-08T05:12:14.882Z,16.74
2018-04-08T05:14:42.277Z,16.40
2018-04-08T05:17:09.843Z,16.49
2018-04-08T05:19:37.233Z,16.68
2018-04-08T05:22:04.639Z,16.70
2018-04-08T05:24:32.026Z,16.71
2018-04-08T05:26:59.413Z,16.72
2018-04-08T05:29:26.876Z,16.46
2018-04-08T05:31:54.275Z,16.45
2018-04-08T05:34:21.705Z,16.47
2018-04-08T05:36:49.090Z,16.49
2018-04-08T05:39:16.484Z,16.59
2018-04-08T05:41:43.941Z,16.33
2018-04-08T05:44:11.325Z,16.55
2018-04-08T05:46:38.726Z,16.74
2018-04-08T05:49:06.118Z,16.80
2018-04-08T05:51:33.509Z,16.63
2018-04-08T05:54:00.896Z,16.55
2018-04-08T05:56:28.285Z,16.48
2018-04-08T05:58:55.718Z,16.55
2018-04-08T06:01:23.113Z,16.55
2018-04-08T06:03:50.632Z,16.93
2018-04-08T06:06:17.990Z,16.86
2018-04-08T06:08:45.521Z,16.67
2018-04-08T06:11:12.962Z,16.67
2018-04-08T06:13:40.344Z,16.96
2018-04-08T06:16:08.079Z,16.96
2018-04-08T06:18:35.540Z,17.02
2018-04-08T06:21:02.939Z,17.06
2018-04-08T06:23:30.340Z,17.13
2018-04-08T06:25:58.370Z,17.26
2018-04-08T06:28:25.884Z,17.14
2018-04-08T06:30:53.284Z,17.26
2018-04-08T06:33:20.910Z,17.17
2018-04-08T06:35:48.292Z,17.07
2018-04-08T06:38:15.689Z,17.13
2018-04-08T06:40:43.056Z,17.27
2018-04-08T06:43:10.457Z,17.37
2018-04-08T06:45:37.924Z,17.24
2018-04-08T06:48:05.361Z,17.27
2018-04-08T06:50:32.742Z,17.37
2018-04-08T06:53:00.145Z,17.37
2018-04-08T06:55:27.541Z,17.42
2018-04-08T06:57:54.918Z,17.52
2018-04-08T07:00:22.314Z,17.27
2018-04-08T07:02:49.700Z,17.39
2018-04-08T07:05:17.139Z,17.30
2018-04-08T07:07:44.468Z,17.27
2018-04-08T07:10:11.894Z,17.32
2018-04-08T07:12:39.303Z,17.34
2018-04-08T07:15:06.698Z,17.35
2018-04-08T07:17:34.115Z,17.21
2018-04-08T07:20:02.162Z,17.33
2018-04-08T07:22:29.957Z,17.31
2018-04-08T07:24:57.413Z,17.24
2018-04-08T07:27:24.822Z,17.42
2018-04-08T07:29:52.210Z,17.48
2018-04-08T07:32:19.620Z,17.49
2018-04-08T07:34:47.042Z,17.25
2018-04-08T07:37:14.637Z,17.62
2018-04-08T07:39:42.045Z,17.54
2018-04-08T07:42:10.530Z,17.56
2018-04-08T07:44:37.925Z,17.80
2018-04-08T07:47:05.308Z,17.86
2018-04-08T07:49:32.687Z,17.90
2018-04-08T07:52:00.073Z,18.06
2018-04-08T07:54:27.578Z,18.23
2018-04-08T07:56:54.988Z,18.25
2018-04-08T07:59:22.386Z,18.23
2018-04-08T08:01:49.777Z,18.28
2018-04-08T08:04:17.164Z,18.38
2018-04-08T08:06:44.644Z,18.38
2018-04-08T08:09:12.045Z,18.49
2018-04-08T08:11:39.441Z,18.64
2018-04-08T08:14:07.622Z,18.53
2018-04-08T08:16:35.013Z,18.68
2018-04-08T08:19:02.393Z,18.65
2018-04-08T08:21:29.793Z,18.91
2018-04-08T08:23:57.402Z,18.99
2018-04-08T08:26:24.802Z,19.02
2018-04-08T08:28:52.190Z,19.06
2018-04-08T08:31:19.597Z,19.09
2018-04-08T08:33:46.993Z,19.23
2018-04-08T08:36:14.915Z,19.35
2018-04-08T08:38:42.328Z,19.44
2018-04-08T08:41:09.775Z,19.35
2018-04-08T08:43:37.147Z,19.34
2018-04-08T08:46:04.530Z,19.19
2018-04-08T08:48:31.965Z,19.26
2018-04-08T08:50:59.564Z,19.27
2018-04-08T08:53:27.077Z,19.46
2018-04-08T08:55:54.489Z,19.55
2018-04-08T08:58:21.878Z,19.53
2018-04-08T09:00:49.253Z,19.62
2018-04-08T09:03:16.672Z,19.87
2018-04-08T09:05:44.242Z,20.14
2018-04-08T09:08:11.722Z,20.24
2018-04-08T09:10:39.124Z,20.37
2018-04-08T09:13:06.530Z,20.39
2018-04-08T09:15:33.960Z,20.52
2018-04-08T09:18:02.774Z,20.66
2018-04-08T09:20:33.068Z,20.76
2018-04-08T09:23:05.937Z,20.77
2018-04-08T09:38:55.925Z,21.29
2018-04-08T09:41:23.313Z,21.40
2018-04-08T09:43:50.785Z,21.46
2018-04-08T09:46:18.225Z,21.55
2018-04-08T09:48:45.652Z,21.50
2018-04-08T09:51:13.027Z,21.67
2018-04-08T09:53:40.469Z,21.74
2018-04-08T09:56:07.869Z,21.80
2018-04-08T09:58:35.276Z,21.99
2018-04-08T10:01:09.161Z,22.11
2018-04-08T10:03:53.286Z,22.04
2018-04-08T10:06:20.911Z,22.10
2018-04-08T10:08:48.294Z,22.28
2018-04-08T10:11:15.712Z,22.35
2018-04-08T10:13:43.106Z,22.53
2018-04-08T10:16:10.553Z,22.57
2018-04-08T10:18:38.002Z,22.58
2018-04-08T10:21:05.454Z,22.66
2018-04-08T10:23:32.843Z,22.80
2018-04-08T10:26:00.269Z,22.86
2018-04-08T10:28:27.666Z,22.88
2018-04-08T10:30:55.079Z,22.99
2018-04-08T10:33:23.386Z,22.99
2018-04-08T10:35:50.914Z,23.27
2018-04-08T10:38:18.812Z,23.39
2018-04-08T10:40:46.246Z,23.52
2018-04-08T10:43:13.657Z,23.61
2018-04-08T10:45:41.299Z,23.62
2018-04-08T10:48:08.709Z,23.71
2018-04-08T10:50:36.126Z,23.70
2018-04-08T10:53:03.529Z,23.81
2018-04-08T10:55:30.982Z,23.95
2018-04-08T10:57:58.377Z,24.25
2018-04-08T11:00:25.793Z,24.25
2018-04-08T11:02:53.210Z,24.46
2018-04-08T11:05:20.662Z,24.23
2018-04-08T11:07:48.081Z,24.18
2018-04-08T11:10:15.497Z,24.34
2018-04-08T11:12:42.896Z,24.58
2018-04-08T11:15:10.277Z,24.79
2018-04-08T11:17:37.683Z,24.79
2018-04-08T11:20:05.078Z,24.81
2018-04-08T11:22:33.704Z,25.04
2018-04-08T11:25:01.095Z,25.28
2018-04-08T11:27:28.545Z,25.36
2018-04-08T11:29:55.942Z,25.56
2018-04-08T11:32:23.455Z,25.61
2018-04-08T11:34:50.840Z,25.78
2018-04-08T11:37:18.298Z,25.93
2018-04-08T11:39:45.930Z,26.19
2018-04-08T11:42:13.310Z,26.27
2018-04-08T11:44:40.754Z,26.28
2018-04-08T11:47:09.240Z,26.61
2018-04-08T11:49:36.920Z,26.74
2018-04-08T11:52:04.417Z,27.04
2018-04-08T11:54:31.834Z,27.13
2018-04-08T11:56:59.270Z,27.43
2018-04-08T11:59:26.689Z,27.69
2018-04-08T12:01:54.096Z,27.82
2018-04-08T12:04:21.749Z,28.15
2018-04-08T12:06:49.145Z,28.45
2018-04-08T12:09:16.537Z,28.84
2018-04-08T12:11:43.921Z,29.18
2018-04-08T12:14:11.307Z,29.41
2018-04-08T12:16:38.830Z,29.83
2018-04-08T12:19:06.671Z,30.13
2018-04-08T12:21:34.527Z,30.55
2018-04-08T12:24:01.936Z,30.57
2018-04-08T12:26:29.446Z,31.34
2018-04-08T12:28:56.879Z,31.55
2018-04-08T12:31:25.219Z,31.86
2018-04-08T12:33:52.754Z,32.24
2018-04-08T12:36:20.221Z,32.67
2018-04-08T12:38:47.867Z,32.90
2018-04-08T12:41:18.465Z,33.01
2018-04-08T12:43:45.875Z,33.70
2018-04-08T12:46:13.393Z,34.18
2018-04-08T12:48:40.814Z,34.41
2018-04-08T12:51:08.215Z,34.48
2018-04-08T12:53:35.603Z,34.99
2018-04-08T12:56:03.034Z,35.30
2018-04-08T12:58:30.454Z,35.71
2018-04-08T13:00:57.886Z,35.74
2018-04-08T13:03:25.320Z,36.16
2018-04-08T13:05:52.746Z,36.23
2018-04-08T13:08:20.140Z,35.29
2018-04-08T13:10:47.517Z,36.25
2018-04-08T13:13:15.001Z,36.49
2018-04-08T13:15:42.429Z,36.99
2018-04-08T13:18:09.863Z,37.12
2018-04-08T13:20:37.277Z,36.67
2018-04-08T13:23:06.363Z,36.40
2018-04-08T13:25:33.787Z,36.48
2018-04-08T13:28:01.290Z,36.42
2018-04-08T13:30:28.776Z,36.29
2018-04-08T13:32:56.241Z,36.74
2018-04-08T13:35:23.709Z,37.19
2018-04-08T13:37:51.103Z,36.96
2018-04-08T13:40:18.500Z,37.55
2018-04-08T13:42:45.892Z,37.41
2018-04-08T13:45:13.324Z,37.16
2018-04-08T13:47:40.737Z,37.67
2018-04-08T13:50:08.236Z,37.81
2018-04-08T13:52:35.650Z,37.89
2018-04-08T13:55:03.043Z,38.21
2018-04-08T13:57:30.446Z,37.80
2018-04-08T13:59:57.850Z,37.67
2018-04-08T14:02:25.266Z,38.06
2018-04-08T14:04:52.680Z,38.12
2018-04-08T14:07:20.077Z,38.27
2018-04-08T14:09:47.460Z,38.30
2018-04-08T14:12:14.837Z,38.58
2018-04-08T14:14:42.229Z,38.92
2018-04-08T14:17:09.663Z,38.26
2018-04-08T14:19:37.070Z,38.40
2018-04-08T14:22:04.462Z,38.64
2018-04-08T14:24:31.889Z,38.89
2018-04-08T14:26:59.229Z,38.29
2018-04-08T14:29:27.081Z,38.07
2018-04-08T14:31:54.451Z,37.62
2018-04-08T14:34:21.840Z,38.58
2018-04-08T14:36:49.233Z,38.28
2018-04-08T14:39:16.645Z,38.48
2018-04-08T14:41:44.085Z,38.32
2018-04-08T14:44:11.466Z,38.21
2018-04-08T14:46:38.886Z,38.22
2018-04-08T14:49:06.286Z,37.87
2018-04-08T14:51:33.986Z,37.80
2018-04-08T14:54:01.414Z,37.64
2018-04-08T14:56:28.827Z,38.07
2018-04-08T14:58:57.268Z,37.58
2018-04-08T15:01:24.701Z,37.65
2018-04-08T15:03:52.077Z,36.97
2018-04-08T15:06:19.478Z,37.14
2018-04-08T15:08:46.865Z,36.90
2018-04-08T15:11:14.269Z,37.09
2018-04-08T15:13:41.650Z,37.08
2018-04-08T15:16:09.037Z,37.19
2018-04-08T15:18:36.665Z,37.42
2018-04-08T15:21:04.053Z,38.02
2018-04-08T15:23:31.463Z,37.73
2018-04-08T15:25:58.848Z,37.69
2018-04-08T15:28:26.247Z,37.96
2018-04-08T15:30:53.645Z,36.97
2018-04-08T15:33:30.746Z,37.36
2018-04-08T15:36:10.329Z,37.65
2018-04-08T15:38:38.018Z,37.35
2018-04-08T15:41:05.425Z,37.50
2018-04-08T15:43:32.945Z,37.11
2018-04-08T15:46:00.351Z,37.31
2018-04-08T15:48:27.764Z,36.93
2018-04-08T15:50:55.177Z,37.12
2018-04-08T15:53:22.576Z,37.18
2018-04-08T15:55:49.961Z,36.57
2018-04-08T15:58:17.411Z,36.62
2018-04-08T16:00:44.787Z,36.22
2018-04-08T16:03:12.201Z,35.86
2018-04-08T16:05:39.578Z,35.13
2018-04-08T16:08:06.996Z,34.94
2018-04-08T16:10:34.577Z,35.39
2018-04-08T16:13:02.706Z,35.35
2018-04-08T16:15:30.101Z,35.16
2018-04-08T16:17:57.505Z,35.17
2018-04-08T16:20:24.937Z,35.23
2018-04-08T16:22:52.325Z,34.70
2018-04-08T16:25:19.733Z,34.14
2018-04-08T16:27:47.144Z,34.19
2018-04-08T16:30:14.542Z,33.97
2018-04-08T16:32:41.974Z,33.87
2018-04-08T16:35:09.369Z,33.06
2018-04-08T16:37:37.085Z,32.72
2018-04-08T16:40:04.459Z,32.27
2018-04-08T16:42:31.866Z,31.85
2018-04-08T16:44:59.452Z,31.37
2018-04-08T16:47:26.854Z,30.78
2018-04-08T16:49:54.224Z,30.92
2018-04-08T16:52:21.593Z,30.74
2018-04-08T16:54:48.996Z,30.84
2018-04-08T16:57:16.365Z,30.73
2018-04-08T16:59:43.751Z,30.41
2018-04-08T17:02:11.125Z,30.36
2018-04-08T17:04:38.526Z,29.86
2018-04-08T17:07:05.907Z,29.81
2018-04-08T17:09:33.295Z,29.37
2018-04-08T17:12:00.673Z,29.47
2018-04-08T17:14:28.083Z,29.39
2018-04-08T17:16:55.476Z,29.33
2018-04-08T17:19:22.877Z,29.27
2018-04-08T17:21:50.237Z,29.14
2018-04-08T17:24:17.637Z,29.02
2018-04-08T17:26:45.016Z,28.83
2018-04-08T17:29:12.408Z,28.63
2018-04-08T17:31:39.795Z,28.63
2018-04-08T17:34:07.185Z,28.66
2018-04-08T17:36:34.606Z,28.65
2018-04-08T17:39:02.010Z,28.60
2018-04-08T17:41:29.418Z,28.34
2018-04-08T17:43:56.804Z,28.09
2018-04-08T17:46:24.246Z,28.14
2018-04-08T17:48:51.620Z,28.00
2018-04-08T17:51:19.008Z,27.77
2018-04-08T17:53:46.389Z,27.85
2018-04-08T17:56:13.788Z,27.79
2018-04-08T17:58:41.162Z,27.66
2018-04-08T18:01:08.563Z,27.32
2018-04-08T18:03:35.949Z,27.26
2018-04-08T18:06:03.381Z,27.37
2018-04-08T18:08:30.748Z,27.36
2018-04-08T18:10:58.137Z,27.08
2018-04-08T18:13:25.541Z,27.12
2018-04-08T18:15:52.935Z,26.89
2018-04-08T18:18:20.371Z,26.77
2018-04-08T18:20:47.744Z,26.59
2018-04-08T18:23:15.156Z,26.77
2018-04-08T18:25:42.552Z,26.41
2018-04-08T18:28:09.945Z,26.48
2018-04-08T18:30:37.330Z,26.40
2018-04-08T18:33:04.726Z,26.50
2018-04-08T18:35:32.138Z,26.28
2018-04-08T18:37:59.540Z,26.28
2018-04-08T18:40:26.959Z,26.37
2018-04-08T18:42:54.349Z,26.33
2018-04-08T18:45:21.748Z,26.47
2018-04-08T18:47:49.681Z,26.12
2018-04-08T18:50:17.108Z,26.16
2018-04-08T18:52:44.489Z,26.07
2018-04-08T18:55:11.884Z,26.11
2018-04-08T18:57:39.473Z,26.02
2018-04-08T19:00:06.852Z,25.84
2018-04-08T19:02:39.901Z,25.77
2018-04-08T19:05:17.178Z,25.83
2018-04-08T19:07:45.111Z,25.34
2018-04-08T19:10:12.518Z,25.50
2018-04-08T19:12:39.897Z,25.52
2018-04-08T19:15:12.733Z,25.41
2018-04-08T19:17:46.842Z,25.37
2018-04-08T19:20:14.232Z,25.32
2018-04-08T19:22:41.632Z,25.30
2018-04-08T19:25:09.047Z,25.29
2018-04-08T19:27:36.430Z,25.30
2018-04-08T19:32:53.780Z,24.87
2018-04-08T19:35:21.173Z,24.39
2018-04-08T19:37:48.597Z,24.32
2018-04-08T19:40:15.987Z,24.50
2018-04-08T19:42:43.373Z,24.29
2018-04-08T19:45:10.886Z,24.19
2018-04-08T19:47:38.371Z,24.06
2018-04-08T19:50:05.772Z,23.92
2018-04-08T19:52:33.153Z,23.83
2018-04-08T19:55:00.534Z,23.91
2018-04-08T19:57:27.929Z,23.82
2018-04-08T19:59:55.301Z,23.96
2018-04-08T20:02:22.789Z,23.86
2018-04-08T20:04:50.174Z,23.95
2018-04-08T20:07:17.562Z,24.14
2018-04-08T20:09:44.965Z,24.04
2018-04-08T20:12:12.359Z,23.98
2018-04-08T20:14:39.730Z,23.70
2018-04-08T20:17:07.128Z,23.84
2018-04-08T20:19:34.532Z,23.90
2018-04-08T20:22:01.924Z,23.82
2018-04-08T20:24:29.321Z,23.57
2018-04-08T20:26:56.743Z,23.81
2018-04-08T20:29:24.111Z,23.85
2018-04-08T20:31:51.489Z,23.76
2018-04-08T20:34:18.871Z,23.79
2018-04-08T20:36:46.307Z,23.82
2018-04-08T20:39:13.709Z,23.77
2018-04-08T20:41:41.097Z,23.69
2018-04-08T20:44:08.523Z,23.76
2018-04-08T20:46:35.894Z,23.63
2018-04-08T20:49:03.297Z,23.53
2018-04-08T20:51:30.676Z,23.64
2018-04-08T20:53:58.089Z,23.63
2018-04-08T20:56:25.499Z,23.37
2018-04-08T20:58:52.883Z,23.25
2018-04-08T21:01:20.283Z,23.06
2018-04-08T21:03:47.965Z,23.02
2018-04-08T21:06:15.353Z,23.12
2018-04-08T21:08:42.771Z,22.98
2018-04-08T21:11:10.157Z,22.85
2018-04-08T21:13:37.571Z,22.89
2018-04-08T21:16:04.962Z,22.95
2018-04-08T21:18:32.342Z,22.63
2018-04-08T21:20:59.732Z,22.65
2018-04-08T21:23:27.105Z,22.58
2018-04-08T21:25:54.541Z,22.92
2018-04-08T21:28:21.925Z,22.81
2018-04-08T21:30:49.315Z,22.91
2018-04-08T21:33:16.726Z,22.83
2018-04-08T21:35:44.137Z,22.72
2018-04-08T21:38:11.559Z,22.67
2018-04-08T21:40:38.974Z,22.49
2018-04-08T21:43:06.367Z,22.25
2018-04-08T21:45:33.805Z,22.32
2018-04-08T21:48:01.242Z,22.17
2018-04-08T21:50:28.624Z,22.39
2018-04-08T21:52:56.016Z,22.25
2018-04-08T21:55:23.406Z,22.19
2018-04-08T21:57:50.787Z,22.17
2018-04-08T22:00:18.238Z,22.30
2018-04-08T22:02:45.613Z,21.93
2018-04-08T22:05:12.988Z,22.01
2018-04-08T22:07:40.400Z,21.99
2018-04-08T22:10:07.774Z,21.99
2018-04-08T22:12:35.186Z,22.12
2018-04-08T22:15:02.866Z,22.02
2018-04-08T22:17:30.685Z,21.93
2018-04-08T22:19:59.076Z,22.14
2018-04-08T22:22:26.683Z,21.92
2018-04-08T22:24:55.257Z,21.78
2018-04-08T22:27:22.984Z,21.78
2018-04-08T22:29:50.629Z,21.62
2018-04-08T22:32:18.451Z,21.94
2018-04-08T22:34:46.122Z,21.94
2018-04-08T22:37:13.874Z,21.97
2018-04-08T22:39:42.726Z,22.03
2018-04-08T22:42:10.385Z,21.59
2018-04-08T22:44:38.149Z,21.27
2018-04-08T22:47:06.683Z,21.28
2018-04-08T22:49:34.363Z,21.31
2018-04-08T22:52:02.383Z,21.30
2018-04-08T22:54:31.098Z,21.22
2018-04-08T22:56:59.107Z,21.22
2018-04-08T22:59:26.992Z,21.45
2018-04-08T23:01:54.686Z,21.28
2018-04-08T23:04:22.531Z,21.17
2018-04-08T23:06:50.397Z,21.22
2018-04-08T23:09:18.219Z,20.93
2018-04-08T23:11:46.744Z,21.00
2018-04-08T23:14:14.608Z,21.06
2018-04-08T23:16:42.475Z,21.17
2018-04-08T23:19:10.185Z,21.03
2018-04-08T23:21:37.853Z,21.17
2018-04-08T23:24:05.469Z,21.20
2018-04-08T23:26:33.130Z,21.23
2018-04-08T23:29:00.608Z,20.69
2018-04-08T23:31:30.036Z,20.73
2018-04-08T23:33:57.679Z,20.54
2018-04-08T23:36:25.322Z,20.58
2018-04-08T23:38:52.941Z,20.51
2018-04-08T23:41:21.398Z,20.66
2018-04-08T23:43:49.096Z,20.79
2018-04-08T23:46:16.814Z,20.62
2018-04-08T23:48:44.516Z,20.69
2018-04-08T23:51:12.237Z,20.60
2018-04-08T23:53:39.948Z,20.48
2018-04-08T23:56:08.549Z,20.57
2018-04-08T23:58:37.170Z,20.69
